sensor_id;sensor_type;location;lat;lon;timestamp;pressure;altitude;pressure_sealevel;temperature;humidity
46456;BME280;64052;47.466;9.094;2022-10-16T00:02:39;95702.88;;;14.99;76.16
46456;BME280;64052;47.466;9.094;2022-10-16T00:07:40;95703.56;;;15.01;75.84
46456;BME280;64052;47.466;9.094;2022-10-16T00:12:42;95707.88;;;15.02;75.71
46456;BME280;64052;47.466;9.094;2022-10-16T00:17:43;95709.84;;;15.00;75.48
46456;BME280;64052;47.466;9.094;2022-10-16T00:22:45;95714.88;;;15.12;74.88
46456;BME280;64052;47.466;9.094;2022-10-16T00:27:46;95714.03;;;15.20;74.28
46456;BME280;64052;47.466;9.094;2022-10-16T00:32:48;95706.41;;;15.25;74.29
46456;BME280;64052;47.466;9.094;2022-10-16T00:37:49;95697.09;;;15.12;74.63
46456;BME280;64052;47.466;9.094;2022-10-16T00:42:50;95690.78;;;15.05;74.80
46456;BME280;64052;47.466;9.094;2022-10-16T00:47:53;95695.72;;;15.00;74.95
46456;BME280;64052;47.466;9.094;2022-10-16T00:52:57;95702.84;;;14.83;76.01
46456;BME280;64052;47.466;9.094;2022-10-16T00:57:59;95690.66;;;15.40;73.91
46456;BME280;64052;47.466;9.094;2022-10-16T01:03:02;95688.66;;;15.75;72.66
46456;BME280;64052;47.466;9.094;2022-10-16T01:08:16;95701.16;;;15.74;71.99
46456;BME280;64052;47.466;9.094;2022-10-16T01:13:35;95712.94;;;15.72;72.28
46456;BME280;64052;47.466;9.094;2022-10-16T01:18:47;95712.91;;;15.80;72.04
46456;BME280;64052;47.466;9.094;2022-10-16T01:24:17;95716.56;;;15.87;71.80
46456;BME280;64052;47.466;9.094;2022-10-16T01:29:29;95717.75;;;15.93;71.72
46456;BME280;64052;47.466;9.094;2022-10-16T01:34:52;95710.63;;;15.94;72.09
46456;BME280;64052;47.466;9.094;2022-10-16T01:39:58;95706.47;;;15.66;73.07
46456;BME280;64052;47.466;9.094;2022-10-16T01:45:01;95703.59;;;15.26;74.62
46456;BME280;64052;47.466;9.094;2022-10-16T01:50:04;95717.03;;;15.25;74.54
46456;BME280;64052;47.466;9.094;2022-10-16T01:55:09;95716.69;;;15.20;74.60
46456;BME280;64052;47.466;9.094;2022-10-16T02:00:13;95716.84;;;15.18;74.50
46456;BME280;64052;47.466;9.094;2022-10-16T02:05:20;95723.66;;;15.21;74.86
46456;BME280;64052;47.466;9.094;2022-10-16T02:10:24;95720.16;;;15.03;75.74
46456;BME280;64052;47.466;9.094;2022-10-16T02:15:26;95719.16;;;15.04;75.64
46456;BME280;64052;47.466;9.094;2022-10-16T02:20:32;95722.34;;;15.16;75.10
46456;BME280;64052;47.466;9.094;2022-10-16T02:25:37;95721.34;;;15.17;75.19
46456;BME280;64052;47.466;9.094;2022-10-16T02:30:48;95715.06;;;15.27;74.66
46456;BME280;64052;47.466;9.094;2022-10-16T02:35:52;95711.53;;;15.10;75.82
46456;BME280;64052;47.466;9.094;2022-10-16T02:40:54;95728.28;;;15.10;75.78
46456;BME280;64052;47.466;9.094;2022-10-16T02:45:56;95725.47;;;15.12;75.88
46456;BME280;64052;47.466;9.094;2022-10-16T02:50:57;95724.34;;;15.14;75.77
46456;BME280;64052;47.466;9.094;2022-10-16T02:55:59;95735.09;;;15.13;75.03
46456;BME280;64052;47.466;9.094;2022-10-16T03:01:00;95738.09;;;15.18;74.77
46456;BME280;64052;47.466;9.094;2022-10-16T03:06:02;95739.00;;;15.68;72.53
46456;BME280;64052;47.466;9.094;2022-10-16T03:11:04;95728.44;;;15.00;74.73
46456;BME280;64052;47.466;9.094;2022-10-16T03:16:05;95713.84;;;14.96;74.76
46456;BME280;64052;47.466;9.094;2022-10-16T03:21:07;95705.03;;;14.96;74.22
46456;BME280;64052;47.466;9.094;2022-10-16T03:26:08;95702.34;;;14.87;74.23
46456;BME280;64052;47.466;9.094;2022-10-16T03:31:10;95715.53;;;14.71;74.71
46456;BME280;64052;47.466;9.094;2022-10-16T03:36:11;95718.31;;;14.96;74.76
46456;BME280;64052;47.466;9.094;2022-10-16T03:41:13;95732.84;;;15.35;73.25
46456;BME280;64052;47.466;9.094;2022-10-16T03:46:14;95736.16;;;15.53;71.49
46456;BME280;64052;47.466;9.094;2022-10-16T03:51:15;95742.75;;;15.08;72.76
46456;BME280;64052;47.466;9.094;2022-10-16T03:56:17;95751.06;;;15.21;72.33
46456;BME280;64052;47.466;9.094;2022-10-16T04:01:18;95760.06;;;15.37;71.79
46456;BME280;64052;47.466;9.094;2022-10-16T04:06:20;95760.34;;;15.17;72.36
46456;BME280;64052;47.466;9.094;2022-10-16T04:11:22;95760.28;;;15.68;70.44
46456;BME280;64052;47.466;9.094;2022-10-16T04:16:23;95754.75;;;15.37;71.41
46456;BME280;64052;47.466;9.094;2022-10-16T04:21:25;95758.59;;;15.42;71.59
46456;BME280;64052;47.466;9.094;2022-10-16T04:26:27;95760.53;;;15.32;71.80
46456;BME280;64052;47.466;9.094;2022-10-16T04:31:29;95768.19;;;15.35;71.19
46456;BME280;64052;47.466;9.094;2022-10-16T04:36:30;95766.72;;;15.32;71.52
46456;BME280;64052;47.466;9.094;2022-10-16T04:41:31;95765.34;;;15.20;71.51
46456;BME280;64052;47.466;9.094;2022-10-16T04:46:33;95770.81;;;15.18;71.60
46456;BME280;64052;47.466;9.094;2022-10-16T04:51:35;95764.34;;;15.29;71.32
46456;BME280;64052;47.466;9.094;2022-10-16T04:56:36;95778.44;;;15.13;72.47
46456;BME280;64052;47.466;9.094;2022-10-16T05:01:38;95771.13;;;15.15;72.87
46456;BME280;64052;47.466;9.094;2022-10-16T05:06:39;95780.09;;;15.23;72.32
46456;BME280;64052;47.466;9.094;2022-10-16T05:11:41;95783.50;;;15.58;70.23
46456;BME280;64052;47.466;9.094;2022-10-16T05:16:42;95790.81;;;15.72;69.54
46456;BME280;64052;47.466;9.094;2022-10-16T05:21:44;95797.50;;;15.77;69.69
46456;BME280;64052;47.466;9.094;2022-10-16T05:26:46;95788.50;;;15.53;70.04
46456;BME280;64052;47.466;9.094;2022-10-16T05:31:52;95801.59;;;15.54;70.08
46456;BME280;64052;47.466;9.094;2022-10-16T05:36:54;95812.72;;;14.98;71.95
46456;BME280;64052;47.466;9.094;2022-10-16T05:41:55;95797.16;;;15.71;69.47
46456;BME280;64052;47.466;9.094;2022-10-16T05:46:57;95793.78;;;15.44;69.69
46456;BME280;64052;47.466;9.094;2022-10-16T05:51:59;95791.59;;;15.40;70.19
46456;BME280;64052;47.466;9.094;2022-10-16T05:57:00;95797.63;;;15.50;69.38
46456;BME280;64052;47.466;9.094;2022-10-16T06:02:01;95805.28;;;15.62;69.23
46456;BME280;64052;47.466;9.094;2022-10-16T06:07:03;95807.91;;;15.53;69.43
46456;BME280;64052;47.466;9.094;2022-10-16T06:12:04;95817.56;;;15.63;68.80
46456;BME280;64052;47.466;9.094;2022-10-16T06:17:06;95816.44;;;15.82;68.33
46456;BME280;64052;47.466;9.094;2022-10-16T06:22:07;95823.41;;;15.74;69.12
46456;BME280;64052;47.466;9.094;2022-10-16T06:27:09;95829.72;;;15.65;69.88
46456;BME280;64052;47.466;9.094;2022-10-16T06:32:10;95836.72;;;15.74;69.32
46456;BME280;64052;47.466;9.094;2022-10-16T06:37:12;95842.16;;;15.65;70.13
46456;BME280;64052;47.466;9.094;2022-10-16T06:42:13;95853.91;;;15.45;70.69
46456;BME280;64052;47.466;9.094;2022-10-16T06:47:15;95852.09;;;15.54;71.66
46456;BME280;64052;47.466;9.094;2022-10-16T06:52:16;95854.25;;;15.59;72.06
46456;BME280;64052;47.466;9.094;2022-10-16T06:57:17;95861.97;;;15.79;71.51
46456;BME280;64052;47.466;9.094;2022-10-16T07:02:19;95870.63;;;15.89;71.26
46456;BME280;64052;47.466;9.094;2022-10-16T07:07:20;95879.31;;;15.99;71.31
46456;BME280;64052;47.466;9.094;2022-10-16T07:12:22;95873.50;;;15.96;70.35
46456;BME280;64052;47.466;9.094;2022-10-16T07:17:24;95892.59;;;16.08;70.75
46456;BME280;64052;47.466;9.094;2022-10-16T07:22:25;95888.47;;;16.22;70.18
46456;BME280;64052;47.466;9.094;2022-10-16T07:27:28;95893.28;;;16.35;69.02
46456;BME280;64052;47.466;9.094;2022-10-16T07:32:29;95917.56;;;16.48;67.70
46456;BME280;64052;47.466;9.094;2022-10-16T07:37:30;95922.38;;;16.53;66.26
46456;BME280;64052;47.466;9.094;2022-10-16T07:42:32;95919.06;;;16.26;66.48
46456;BME280;64052;47.466;9.094;2022-10-16T07:47:33;95924.72;;;16.31;66.33
46456;BME280;64052;47.466;9.094;2022-10-16T07:52:35;95921.72;;;16.26;66.81
46456;BME280;64052;47.466;9.094;2022-10-16T07:57:36;95924.72;;;16.39;66.17
46456;BME280;64052;47.466;9.094;2022-10-16T08:02:38;95941.69;;;16.38;66.15
46456;BME280;64052;47.466;9.094;2022-10-16T08:07:39;95954.66;;;16.41;66.59
46456;BME280;64052;47.466;9.094;2022-10-16T08:12:40;95941.03;;;17.59;64.62
46456;BME280;64052;47.466;9.094;2022-10-16T08:17:42;95949.03;;;17.59;63.60
46456;BME280;64052;47.466;9.094;2022-10-16T08:22:43;95957.47;;;17.79;60.93
46456;BME280;64052;47.466;9.094;2022-10-16T08:27:45;95959.50;;;18.09;60.74
46456;BME280;64052;47.466;9.094;2022-10-16T08:32:46;95957.94;;;18.46;60.18
46456;BME280;64052;47.466;9.094;2022-10-16T08:37:48;95952.59;;;18.70;59.49
46456;BME280;64052;47.466;9.094;2022-10-16T08:48:12;95962.19;;;19.02;58.32
46456;BME280;64052;47.466;9.094;2022-10-16T08:53:51;95972.28;;;19.45;58.34
46456;BME280;64052;47.466;9.094;2022-10-16T08:58:45;95970.59;;;19.89;56.08
46456;BME280;64052;47.466;9.094;2022-10-16T09:15:02;95983.34;;;20.39;55.93
46456;BME280;64052;47.466;9.094;2022-10-16T09:25:20;95974.50;;;21.04;51.20
46456;BME280;64052;47.466;9.094;2022-10-16T09:30:27;95984.03;;;21.70;51.64
46456;BME280;64052;47.466;9.094;2022-10-16T09:35:38;95981.16;;;21.72;51.40
46456;BME280;64052;47.466;9.094;2022-10-16T09:40:42;95983.44;;;22.24;51.17
46456;BME280;64052;47.466;9.094;2022-10-16T09:45:53;95985.91;;;22.87;52.43
46456;BME280;64052;47.466;9.094;2022-10-16T09:50:59;95979.47;;;23.49;50.95
46456;BME280;64052;47.466;9.094;2022-10-16T09:56:01;95968.50;;;24.23;49.81
46456;BME280;64052;47.466;9.094;2022-10-16T10:01:02;95981.34;;;24.60;46.60
46456;BME280;64052;47.466;9.094;2022-10-16T10:06:17;95976.19;;;25.67;45.21
46456;BME280;64052;47.466;9.094;2022-10-16T10:11:42;95982.94;;;26.32;41.13
46456;BME280;64052;47.466;9.094;2022-10-16T10:16:45;95985.44;;;26.34;41.08
46456;BME280;64052;47.466;9.094;2022-10-16T10:21:47;95978.88;;;26.72;39.81
46456;BME280;64052;47.466;9.094;2022-10-16T10:26:57;95971.97;;;28.60;38.08
46456;BME280;64052;47.466;9.094;2022-10-16T10:37:41;95972.38;;;29.15;38.22
46456;BME280;64052;47.466;9.094;2022-10-16T10:42:59;95965.47;;;29.59;35.87
46456;BME280;64052;47.466;9.094;2022-10-16T10:54:17;95958.38;;;30.64;33.27
46456;BME280;64052;47.466;9.094;2022-10-16T10:58:59;95951.09;;;31.35;33.23
46456;BME280;64052;47.466;9.094;2022-10-16T11:09:43;95949.44;;;35.37;27.36
46456;BME280;64052;47.466;9.094;2022-10-16T11:15:14;95947.66;;;36.49;26.87
46456;BME280;64052;47.466;9.094;2022-10-16T11:20:23;95949.34;;;36.01;26.63
46456;BME280;64052;47.466;9.094;2022-10-16T11:25:28;95946.44;;;36.17;27.07
46456;BME280;64052;47.466;9.094;2022-10-16T11:30:39;95928.69;;;36.53;25.77
46456;BME280;64052;47.466;9.094;2022-10-16T11:35:46;95926.19;;;36.76;25.59
46456;BME280;64052;47.466;9.094;2022-10-16T11:40:53;95919.97;;;37.36;24.57
46456;BME280;64052;47.466;9.094;2022-10-16T11:46:00;95916.69;;;37.67;24.52
46456;BME280;64052;47.466;9.094;2022-10-16T11:51:14;95910.47;;;37.76;24.45
46456;BME280;64052;47.466;9.094;2022-10-16T11:56:19;95903.13;;;38.13;23.62
46456;BME280;64052;47.466;9.094;2022-10-16T12:01:30;95909.19;;;38.52;23.03
46456;BME280;64052;47.466;9.094;2022-10-16T12:06:57;95906.91;;;38.68;23.63
46456;BME280;64052;47.466;9.094;2022-10-16T12:11:59;95906.56;;;39.06;23.69
46456;BME280;64052;47.466;9.094;2022-10-16T12:17:04;95901.28;;;38.22;24.43
46456;BME280;64052;47.466;9.094;2022-10-16T12:22:23;95904.97;;;36.19;26.25
46456;BME280;64052;47.466;9.094;2022-10-16T12:27:30;95911.84;;;33.52;30.28
46456;BME280;64052;47.466;9.094;2022-10-16T12:32:37;95909.97;;;33.01;32.36
46456;BME280;64052;47.466;9.094;2022-10-16T12:37:49;95901.75;;;35.38;28.16
46456;BME280;64052;47.466;9.094;2022-10-16T12:42:51;95902.47;;;36.80;26.43
46456;BME280;64052;47.466;9.094;2022-10-16T12:47:54;95897.41;;;36.49;25.63
46456;BME280;64052;47.466;9.094;2022-10-16T12:52:56;95890.19;;;36.58;25.91
46456;BME280;64052;47.466;9.094;2022-10-16T12:58:23;95892.00;;;36.43;24.79
46456;BME280;64052;47.466;9.094;2022-10-16T13:04:00;95889.66;;;35.39;24.84
46456;BME280;64052;47.466;9.094;2022-10-16T13:14:58;95887.38;;;31.95;29.38
46456;BME280;64052;47.466;9.094;2022-10-16T13:20:18;95886.31;;;31.10;31.76
46456;BME280;64052;47.466;9.094;2022-10-16T13:31:00;95890.75;;;30.01;33.87
46456;BME280;64052;47.466;9.094;2022-10-16T13:36:03;95886.44;;;29.61;35.90
46456;BME280;64052;47.466;9.094;2022-10-16T13:41:13;95896.53;;;29.43;36.01
46456;BME280;64052;47.466;9.094;2022-10-16T13:46:22;95896.69;;;29.36;35.87
46456;BME280;64052;47.466;9.094;2022-10-16T13:51:24;95892.22;;;29.30;34.50
46456;BME280;64052;47.466;9.094;2022-10-16T13:56:28;95893.81;;;29.09;34.09
46456;BME280;64052;47.466;9.094;2022-10-16T14:01:35;95901.81;;;29.15;35.28
46456;BME280;64052;47.466;9.094;2022-10-16T14:06:45;95894.97;;;29.13;34.91
46456;BME280;64052;47.466;9.094;2022-10-16T14:11:53;95902.94;;;28.68;33.31
46456;BME280;64052;47.466;9.094;2022-10-16T14:16:55;95914.97;;;28.43;36.05
46456;BME280;64052;47.466;9.094;2022-10-16T14:21:58;95912.69;;;28.52;36.28
46456;BME280;64052;47.466;9.094;2022-10-16T14:27:01;95917.63;;;28.55;37.06
46456;BME280;64052;47.466;9.094;2022-10-16T14:32:05;95916.44;;;28.34;36.57
46456;BME280;64052;47.466;9.094;2022-10-16T14:37:14;95921.66;;;28.24;38.05
46456;BME280;64052;47.466;9.094;2022-10-16T14:42:18;95913.19;;;27.79;39.38
46456;BME280;64052;47.466;9.094;2022-10-16T14:47:25;95919.66;;;27.42;37.53
46456;BME280;64052;47.466;9.094;2022-10-16T14:52:27;95914.75;;;27.15;41.03
46456;BME280;64052;47.466;9.094;2022-10-16T14:57:31;95923.53;;;27.46;39.01
46456;BME280;64052;47.466;9.094;2022-10-16T15:02:35;95916.34;;;26.80;40.91
46456;BME280;64052;47.466;9.094;2022-10-16T15:07:36;95922.03;;;26.60;41.39
46456;BME280;64052;47.466;9.094;2022-10-16T15:12:38;95927.81;;;26.64;41.69
46456;BME280;64052;47.466;9.094;2022-10-16T15:17:39;95935.00;;;26.09;43.23
46456;BME280;64052;47.466;9.094;2022-10-16T15:22:41;95932.00;;;25.61;44.02
46456;BME280;64052;47.466;9.094;2022-10-16T15:27:42;95931.66;;;25.76;42.83
46456;BME280;64052;47.466;9.094;2022-10-16T15:32:44;95942.75;;;26.17;43.29
46456;BME280;64052;47.466;9.094;2022-10-16T15:37:48;95949.56;;;26.08;43.83
46456;BME280;64052;47.466;9.094;2022-10-16T15:42:50;95952.06;;;25.47;44.08
46456;BME280;64052;47.466;9.094;2022-10-16T15:47:51;95948.13;;;24.98;45.61
46456;BME280;64052;47.466;9.094;2022-10-16T15:52:53;95951.28;;;24.63;46.68
46456;BME280;64052;47.466;9.094;2022-10-16T15:57:54;95963.41;;;23.95;47.48
46456;BME280;64052;47.466;9.094;2022-10-16T16:02:56;95970.38;;;23.50;48.06
46456;BME280;64052;47.466;9.094;2022-10-16T16:07:57;95962.91;;;23.25;49.86
46456;BME280;64052;47.466;9.094;2022-10-16T16:12:58;95977.22;;;23.12;50.57
46456;BME280;64052;47.466;9.094;2022-10-16T16:18:00;95979.47;;;22.62;51.30
46456;BME280;64052;47.466;9.094;2022-10-16T16:23:01;95986.41;;;22.42;52.56
46456;BME280;64052;47.466;9.094;2022-10-16T16:28:03;95991.69;;;22.22;52.99
46456;BME280;64052;47.466;9.094;2022-10-16T16:33:04;96001.06;;;21.91;54.30
46456;BME280;64052;47.466;9.094;2022-10-16T16:38:06;95999.31;;;21.70;53.72
46456;BME280;64052;47.466;9.094;2022-10-16T16:43:07;96014.88;;;21.53;53.80
46456;BME280;64052;47.466;9.094;2022-10-16T16:48:08;96012.41;;;21.01;55.68
46456;BME280;64052;47.466;9.094;2022-10-16T16:53:10;96024.63;;;20.82;56.94
46456;BME280;64052;47.466;9.094;2022-10-16T16:58:11;96026.69;;;20.64;57.74
46456;BME280;64052;47.466;9.094;2022-10-16T17:03:13;96044.34;;;20.59;57.33
46456;BME280;64052;47.466;9.094;2022-10-16T17:08:14;96058.78;;;20.43;56.97
46456;BME280;64052;47.466;9.094;2022-10-16T17:13:16;96061.28;;;20.44;57.22
46456;BME280;64052;47.466;9.094;2022-10-16T17:18:17;96075.03;;;19.81;57.57
46456;BME280;64052;47.466;9.094;2022-10-16T17:23:19;96085.25;;;19.62;57.80
46456;BME280;64052;47.466;9.094;2022-10-16T17:28:20;96096.13;;;19.46;58.09
46456;BME280;64052;47.466;9.094;2022-10-16T17:33:22;96097.34;;;19.35;58.61
46456;BME280;64052;47.466;9.094;2022-10-16T17:38:23;96099.88;;;19.36;58.66
46456;BME280;64052;47.466;9.094;2022-10-16T17:43:25;96110.88;;;19.18;59.30
46456;BME280;64052;47.466;9.094;2022-10-16T17:48:26;96121.69;;;19.02;59.51
46456;BME280;64052;47.466;9.094;2022-10-16T17:53:28;96128.75;;;18.86;59.76
46456;BME280;64052;47.466;9.094;2022-10-16T17:58:29;96133.47;;;18.76;60.06
46456;BME280;64052;47.466;9.094;2022-10-16T18:03:31;96143.94;;;18.86;60.17
46456;BME280;64052;47.466;9.094;2022-10-16T18:08:32;96143.22;;;18.60;60.14
46456;BME280;64052;47.466;9.094;2022-10-16T18:13:34;96158.75;;;18.65;60.71
46456;BME280;64052;47.466;9.094;2022-10-16T18:18:37;96156.81;;;18.50;60.87
46456;BME280;64052;47.466;9.094;2022-10-16T18:23:39;96158.88;;;18.72;60.39
46456;BME280;64052;47.466;9.094;2022-10-16T18:28:41;96170.28;;;18.65;60.70
46456;BME280;64052;47.466;9.094;2022-10-16T18:33:44;96165.19;;;18.39;62.01
46456;BME280;64052;47.466;9.094;2022-10-16T18:38:47;96164.63;;;18.52;61.65
46456;BME280;64052;47.466;9.094;2022-10-16T18:43:48;96177.00;;;18.53;61.17
46456;BME280;64052;47.466;9.094;2022-10-16T18:48:50;96176.78;;;18.63;60.85
46456;BME280;64052;47.466;9.094;2022-10-16T18:53:56;96178.97;;;18.59;61.04
46456;BME280;64052;47.466;9.094;2022-10-16T18:58:59;96185.94;;;18.68;60.94
46456;BME280;64052;47.466;9.094;2022-10-16T19:04:04;96186.09;;;18.67;61.01
46456;BME280;64052;47.466;9.094;2022-10-16T19:09:06;96195.63;;;18.61;61.29
46456;BME280;64052;47.466;9.094;2022-10-16T19:14:09;96189.13;;;18.64;61.06
46456;BME280;64052;47.466;9.094;2022-10-16T19:19:13;96197.56;;;18.76;61.04
46456;BME280;64052;47.466;9.094;2022-10-16T19:24:16;96199.09;;;18.70;61.30
46456;BME280;64052;47.466;9.094;2022-10-16T19:29:18;96206.31;;;18.61;60.93
46456;BME280;64052;47.466;9.094;2022-10-16T19:34:19;96210.06;;;18.44;61.54
46456;BME280;64052;47.466;9.094;2022-10-16T19:39:21;96219.22;;;18.41;61.51
46456;BME280;64052;47.466;9.094;2022-10-16T19:44:22;96217.41;;;18.33;62.35
46456;BME280;64052;47.466;9.094;2022-10-16T19:49:24;96219.28;;;18.16;62.57
46456;BME280;64052;47.466;9.094;2022-10-16T19:54:25;96222.81;;;18.08;62.74
46456;BME280;64052;47.466;9.094;2022-10-16T19:59:26;96237.47;;;18.12;62.05
46456;BME280;64052;47.466;9.094;2022-10-16T20:04:28;96241.78;;;17.97;62.48
46456;BME280;64052;47.466;9.094;2022-10-16T20:09:31;96250.47;;;17.66;63.24
46456;BME280;64052;47.466;9.094;2022-10-16T20:14:33;96249.13;;;17.53;64.00
46456;BME280;64052;47.466;9.094;2022-10-16T20:19:35;96250.75;;;17.38;63.58
46456;BME280;64052;47.466;9.094;2022-10-16T20:24:36;96241.09;;;17.37;64.04
46456;BME280;64052;47.466;9.094;2022-10-16T20:29:38;96253.13;;;17.41;63.84
46456;BME280;64052;47.466;9.094;2022-10-16T20:34:39;96246.06;;;17.23;64.09
46456;BME280;64052;47.466;9.094;2022-10-16T20:39:40;96253.56;;;16.85;64.91
46456;BME280;64052;47.466;9.094;2022-10-16T20:44:42;96257.13;;;16.59;66.04
46456;BME280;64052;47.466;9.094;2022-10-16T20:49:48;96256.81;;;16.62;65.83
46456;BME280;64052;47.466;9.094;2022-10-16T20:54:49;96256.78;;;16.27;67.32
46456;BME280;64052;47.466;9.094;2022-10-16T20:59:51;96267.22;;;16.21;67.55
46456;BME280;64052;47.466;9.094;2022-10-16T21:04:52;96275.53;;;16.18;66.80
46456;BME280;64052;47.466;9.094;2022-10-16T21:09:55;96287.53;;;16.04;67.03
46456;BME280;64052;47.466;9.094;2022-10-16T21:14:56;96289.19;;;15.86;67.03
46456;BME280;64052;47.466;9.094;2022-10-16T21:20:15;96295.97;;;15.81;67.39
46456;BME280;64052;47.466;9.094;2022-10-16T21:25:17;96294.44;;;15.78;67.62
46456;BME280;64052;47.466;9.094;2022-10-16T21:30:18;96299.75;;;15.78;67.47
46456;BME280;64052;47.466;9.094;2022-10-16T21:35:19;96300.09;;;15.93;67.00
46456;BME280;64052;47.466;9.094;2022-10-16T21:40:21;96307.97;;;16.03;66.36
46456;BME280;64052;47.466;9.094;2022-10-16T21:45:23;96311.41;;;15.95;66.78
46456;BME280;64052;47.466;9.094;2022-10-16T21:50:24;96313.69;;;16.08;66.20
46456;BME280;64052;47.466;9.094;2022-10-16T21:55:26;96311.69;;;16.10;66.19
46456;BME280;64052;47.466;9.094;2022-10-16T22:00:27;96310.59;;;16.21;65.28
46456;BME280;64052;47.466;9.094;2022-10-16T22:05:28;96313.38;;;15.93;65.82
46456;BME280;64052;47.466;9.094;2022-10-16T22:10:30;96313.56;;;15.64;66.93
46456;BME280;64052;47.466;9.094;2022-10-16T22:15:32;96313.66;;;15.54;67.45
46456;BME280;64052;47.466;9.094;2022-10-16T22:20:33;96312.97;;;15.52;67.28
46456;BME280;64052;47.466;9.094;2022-10-16T22:25:35;96318.19;;;15.43;67.87
46456;BME280;64052;47.466;9.094;2022-10-16T22:30:37;96318.34;;;15.42;67.79
46456;BME280;64052;47.466;9.094;2022-10-16T22:35:39;96325.88;;;15.65;67.27
46456;BME280;64052;47.466;9.094;2022-10-16T22:40:41;96320.94;;;15.52;67.30
46456;BME280;64052;47.466;9.094;2022-10-16T22:45:42;96314.78;;;15.51;66.50
46456;BME280;64052;47.466;9.094;2022-10-16T22:50:44;96325.03;;;15.46;66.66
46456;BME280;64052;47.466;9.094;2022-10-16T22:55:45;96318.19;;;15.43;66.43
46456;BME280;64052;47.466;9.094;2022-10-16T23:00:47;96322.19;;;15.29;66.76
46456;BME280;64052;47.466;9.094;2022-10-16T23:05:49;96324.31;;;15.26;67.16
46456;BME280;64052;47.466;9.094;2022-10-16T23:10:50;96328.25;;;15.22;67.20
46456;BME280;64052;47.466;9.094;2022-10-16T23:15:52;96326.03;;;15.17;67.62
46456;BME280;64052;47.466;9.094;2022-10-16T23:20:53;96329.00;;;15.14;67.24
46456;BME280;64052;47.466;9.094;2022-10-16T23:25:54;96341.81;;;15.18;67.19
46456;BME280;64052;47.466;9.094;2022-10-16T23:30:56;96335.97;;;15.15;67.01
46456;BME280;64052;47.466;9.094;2022-10-16T23:35:57;96339.84;;;15.21;67.67
46456;BME280;64052;47.466;9.094;2022-10-16T23:40:59;96335.47;;;15.29;66.59
46456;BME280;64052;47.466;9.094;2022-10-16T23:46:01;96329.66;;;15.44;66.35
46456;BME280;64052;47.466;9.094;2022-10-16T23:51:06;96339.59;;;15.42;66.12
46456;BME280;64052;47.466;9.094;2022-10-16T23:56:08;96342.00;;;15.35;66.12
